createdAt,value
2019-04-22T00:02:13.250Z,99.90
2019-04-22T00:04:56.288Z,99.90
2019-04-22T00:07:44.246Z,99.90
2019-04-22T00:10:11.867Z,99.90
2019-04-22T00:12:47.252Z,99.90
2019-04-22T00:15:15.241Z,99.90
2019-04-22T00:18:03.307Z,99.90
2019-04-22T00:20:22.991Z,99.90
2019-04-22T00:22:51.925Z,99.90
2019-04-22T00:25:34.503Z,99.90
2019-04-22T00:28:02.432Z,99.90
2019-04-22T00:30:28.411Z,99.90
2019-04-22T00:33:24.479Z,99.90
2019-04-22T00:35:54.501Z,99.90
2019-04-22T00:38:35.691Z,99.90
2019-04-22T00:41:01.099Z,99.90
2019-04-22T00:43:32.480Z,99.90
2019-04-22T00:46:09.695Z,99.90
2019-04-22T00:49:29.593Z,99.90
2019-04-22T00:51:12.413Z,99.90
2019-04-22T00:53:39.219Z,99.90
2019-04-22T00:58:45.412Z,99.90
2019-04-22T01:01:21.555Z,99.90
2019-04-22T01:03:58.393Z,99.90
2019-04-22T01:08:57.949Z,99.90
2019-04-22T01:11:29.891Z,99.90
2019-04-22T01:14:01.369Z,99.90
2019-04-22T01:16:39.277Z,99.90
2019-04-22T01:19:06.556Z,99.90
2019-04-22T01:21:42.172Z,99.90
2019-04-22T01:24:12.127Z,99.90
2019-04-22T01:26:41.797Z,99.90
2019-04-22T01:29:11.061Z,99.90
2019-04-22T01:31:34.051Z,99.90
2019-04-22T01:34:16.168Z,99.90
2019-04-22T01:36:52.878Z,99.90
2019-04-22T01:39:40.285Z,99.90
2019-04-22T01:42:16.832Z,99.90
2019-04-22T01:44:38.643Z,99.90
2019-04-22T01:47:11.442Z,99.90
2019-04-22T01:49:44.154Z,99.90
2019-04-22T01:52:17.863Z,99.90
2019-04-22T01:54:52.712Z,99.90
2019-04-22T01:57:19.075Z,99.90
2019-04-22T01:59:45.920Z,99.90
2019-04-22T02:02:43.492Z,99.90
2019-04-22T02:04:59.960Z,99.90
2019-04-22T02:07:32.377Z,99.90
2019-04-22T02:10:03.969Z,99.90
2019-04-22T02:15:09.254Z,99.90
2019-04-22T02:17:46.947Z,99.90
2019-04-22T02:20:23.100Z,99.90
2019-04-22T02:28:39.993Z,99.90
2019-04-22T02:31:25.934Z,99.90
2019-04-22T02:41:23.099Z,99.90
2019-04-22T02:44:04.036Z,99.90
2019-04-22T02:51:22.680Z,99.90
2019-04-22T02:56:31.452Z,99.90
2019-04-22T02:59:09.545Z,99.90
2019-04-22T03:01:39.741Z,99.90
2019-04-22T03:04:20.530Z,99.90
2019-04-22T03:09:14.462Z,99.90
2019-04-22T03:14:13.436Z,99.90
2019-04-22T03:16:48.807Z,99.90
2019-04-22T03:19:36.663Z,99.90
2019-04-22T03:21:57.657Z,99.90
2019-04-22T03:24:25.828Z,99.90
2019-04-22T03:27:02.945Z,99.90
2019-04-22T03:30:33.273Z,99.90
2019-04-22T03:37:49.475Z,99.90
2019-04-22T04:08:15.110Z,99.90
2019-04-22T04:10:42.076Z,99.90
2019-04-22T04:13:30.360Z,99.90
2019-04-22T04:15:40.650Z,99.90
2019-04-22T04:18:30.332Z,99.90
2019-04-22T04:21:06.127Z,99.90
2019-04-22T04:23:32.453Z,99.90
2019-04-22T04:26:05.174Z,99.90
2019-04-22T04:31:02.667Z,99.90
2019-04-22T04:38:46.438Z,99.90
2019-04-22T04:41:19.931Z,99.90
2019-04-22T04:43:52.875Z,99.90
2019-04-22T04:46:24.806Z,99.90
2019-04-22T04:51:23.979Z,99.90
2019-04-22T04:53:58.300Z,99.90
2019-04-22T05:01:30.931Z,99.90
2019-04-22T05:04:11.326Z,99.90
2019-04-22T05:11:47.423Z,99.90
2019-04-22T05:14:09.533Z,99.90
2019-04-22T05:19:15.929Z,99.90
2019-04-22T05:21:50.729Z,99.90
2019-04-22T05:26:52.792Z,99.90
2019-04-22T05:34:21.513Z,99.90
2019-04-22T05:36:57.137Z,99.90
2019-04-22T05:39:21.517Z,99.90
2019-04-22T05:42:07.502Z,99.90
2019-04-22T05:44:39.560Z,99.90
2019-04-22T05:47:08.116Z,99.90
2019-04-22T05:49:35.020Z,99.90
2019-04-22T05:52:12.570Z,99.90
2019-04-22T05:54:42.769Z,99.90
2019-04-22T05:59:56.613Z,99.90
2019-04-22T06:02:36.047Z,99.90
2019-04-22T06:04:54.960Z,99.90
2019-04-22T06:07:19.704Z,99.90
2019-04-22T06:10:02.995Z,99.90
2019-04-22T06:12:23.459Z,99.90
2019-04-22T06:17:38.974Z,99.90
2019-04-22T06:20:02.177Z,99.90
2019-04-22T06:22:43.321Z,99.90
2019-04-22T06:27:41.318Z,99.90
2019-04-22T06:30:15.665Z,99.90
2019-04-22T06:32:46.941Z,99.90
2019-04-22T06:38:09.739Z,99.90
2019-04-22T06:50:39.645Z,99.90
2019-04-22T06:53:04.481Z,99.90
2019-04-22T06:55:43.532Z,99.90
2019-04-22T06:58:10.174Z,99.90
2019-04-22T07:03:39.875Z,99.90
2019-04-22T07:08:39.427Z,98.10
2019-04-22T07:13:42.910Z,95.90
2019-04-22T07:18:31.220Z,96.80
2019-04-22T07:21:01.391Z,95.80
2019-04-22T07:23:45.724Z,94.80
2019-04-22T07:26:04.268Z,93.40
2019-04-22T07:28:29.423Z,93.80
2019-04-22T07:31:12.983Z,92.20
2019-04-22T07:36:44.470Z,90.30
2019-04-22T07:38:42.813Z,90.00
2019-04-22T07:41:24.839Z,86.80
2019-04-22T07:44:12.011Z,90.00
2019-04-22T07:46:27.955Z,88.70
2019-04-22T07:49:06.549Z,89.20
2019-04-22T07:51:32.894Z,86.80
2019-04-22T07:54:03.377Z,87.50
2019-04-22T07:56:54.975Z,87.70
2019-04-22T07:59:09.494Z,88.00
2019-04-22T08:01:39.795Z,86.20
2019-04-22T08:04:21.281Z,87.30
2019-04-22T08:09:19.637Z,84.90
2019-04-22T08:11:51.212Z,87.50
2019-04-22T08:14:27.054Z,86.30
2019-04-22T08:17:01.635Z,84.50
2019-04-22T08:21:59.990Z,82.40
2019-04-22T08:24:35.938Z,83.20
2019-04-22T08:26:59.353Z,80.00
2019-04-22T08:32:05.166Z,77.10
2019-04-22T08:34:40.420Z,76.30
2019-04-22T08:49:59.632Z,70.20
2019-04-22T08:52:26.118Z,67.70
2019-04-22T08:54:57.312Z,67.20
2019-04-22T08:57:40.794Z,66.60
2019-04-22T08:59:59.031Z,65.20
2019-04-22T09:02:34.545Z,66.60
2019-04-22T09:05:10.656Z,64.70
2019-04-22T09:07:36.826Z,61.20
2019-04-22T09:10:14.880Z,60.00
2019-04-22T09:15:16.560Z,60.00
2019-04-22T09:17:47.811Z,59.20
2019-04-22T09:20:32.519Z,58.10
2019-04-22T09:22:53.908Z,58.30
2019-04-22T09:25:26.905Z,58.70
2019-04-22T09:28:10.541Z,57.00
2019-04-22T09:38:23.406Z,56.40
2019-04-22T09:40:35.208Z,56.10
2019-04-22T09:45:43.903Z,55.90
2019-04-22T09:48:18.102Z,55.60
2019-04-22T09:53:20.178Z,55.10
2019-04-22T09:55:51.616Z,53.70
2019-04-22T09:58:23.311Z,54.70
2019-04-22T10:01:25.860Z,54.60
2019-04-22T10:06:27.815Z,54.90
2019-04-22T10:09:13.032Z,54.90
2019-04-22T10:14:12.336Z,54.40
2019-04-22T10:21:40.663Z,55.30
2019-04-22T10:24:09.103Z,53.00
2019-04-22T10:26:46.890Z,53.40
2019-04-22T10:29:30.390Z,53.80
2019-04-22T10:31:46.244Z,53.00
2019-04-22T10:34:05.593Z,53.20
2019-04-22T10:36:25.637Z,52.10
2019-04-22T10:38:56.274Z,52.50
2019-04-22T10:41:28.327Z,53.00
2019-04-22T10:43:59.397Z,52.50
2019-04-22T10:46:30.515Z,53.20
2019-04-22T10:49:01.986Z,52.20
2019-04-22T10:51:32.814Z,51.00
2019-04-22T10:54:03.411Z,51.50
2019-04-22T10:56:34.859Z,51.30
2019-04-22T10:59:06.804Z,50.60
2019-04-22T11:01:38.655Z,51.60
2019-04-22T11:04:09.358Z,51.90
2019-04-22T11:06:50.324Z,50.80
2019-04-22T11:09:12.559Z,50.30
2019-04-22T11:11:52.080Z,51.50
2019-04-22T11:14:16.842Z,50.70
2019-04-22T11:16:47.756Z,50.00
2019-04-22T11:22:01.024Z,50.10
2019-04-22T11:24:23.052Z,50.50
2019-04-22T11:26:54.985Z,50.20
2019-04-22T11:29:25.697Z,50.60
2019-04-22T11:31:56.683Z,50.30
2019-04-22T11:34:28.979Z,48.60
2019-04-22T11:37:00.925Z,50.30
2019-04-22T11:39:36.480Z,49.10
2019-04-22T11:42:05.134Z,49.30
2019-04-22T11:44:37.107Z,49.40
2019-04-22T11:47:07.828Z,49.20
2019-04-22T11:49:39.636Z,47.80
2019-04-22T11:52:12.823Z,48.70
2019-04-22T11:54:43.249Z,48.80
2019-04-22T11:57:15.148Z,49.20
2019-04-22T11:59:46.944Z,50.20
2019-04-22T12:02:21.974Z,49.50
2019-04-22T12:04:53.653Z,49.70
2019-04-22T12:07:24.599Z,49.90
2019-04-22T12:09:55.588Z,48.60
2019-04-22T12:12:27.724Z,49.40
2019-04-22T12:14:58.696Z,49.40
2019-04-22T12:17:29.957Z,49.00
2019-04-22T12:20:03.313Z,49.30
2019-04-22T12:22:35.465Z,49.60
2019-04-22T12:25:08.125Z,49.70
2019-04-22T12:27:41.039Z,49.80
2019-04-22T12:30:12.482Z,49.60
2019-04-22T12:32:43.597Z,50.20
2019-04-22T12:35:17.643Z,50.80
2019-04-22T12:37:53.933Z,50.50
2019-04-22T12:40:34.199Z,50.30
2019-04-22T12:42:55.325Z,50.00
2019-04-22T12:45:26.680Z,50.40
2019-04-22T12:47:58.327Z,50.50
2019-04-22T12:50:33.716Z,50.70
2019-04-22T12:53:08.400Z,50.10
2019-04-22T12:55:34.296Z,51.70
2019-04-22T12:58:05.497Z,52.10
2019-04-22T13:00:36.368Z,51.60
2019-04-22T13:03:07.353Z,51.50
2019-04-22T13:05:38.067Z,51.30
2019-04-22T13:08:09.726Z,51.00
2019-04-22T13:10:51.600Z,51.70
2019-04-22T13:13:15.313Z,51.70
2019-04-22T13:18:27.672Z,50.80
2019-04-22T13:20:50.604Z,51.30
2019-04-22T13:23:22.166Z,51.30
2019-04-22T13:25:52.823Z,49.90
2019-04-22T13:28:25.103Z,50.40
2019-04-22T13:30:58.433Z,50.50
2019-04-22T13:33:28.680Z,51.00
2019-04-22T13:35:59.667Z,50.10
2019-04-22T13:38:31.176Z,51.00
2019-04-22T13:41:16.430Z,50.90
2019-04-22T13:43:34.713Z,51.10
2019-04-22T13:46:06.078Z,51.10
2019-04-22T13:49:03.830Z,51.60
2019-04-22T13:51:48.734Z,52.10
2019-04-22T13:54:42.404Z,50.50
2019-04-22T13:56:30.403Z,50.90
2019-04-22T13:58:58.492Z,49.00
2019-04-22T14:01:22.756Z,50.10
2019-04-22T14:04:02.571Z,50.40
2019-04-22T14:06:34.558Z,50.60
2019-04-22T14:09:07.625Z,50.40
2019-04-22T14:11:46.171Z,50.20
2019-04-22T14:14:10.921Z,50.10
2019-04-22T14:16:44.812Z,50.70
2019-04-22T14:19:16.059Z,51.10
2019-04-22T14:21:47.491Z,50.60
2019-04-22T14:24:19.630Z,50.70
2019-04-22T14:27:03.587Z,51.00
2019-04-22T14:32:04.240Z,51.20
2019-04-22T14:34:26.595Z,50.20
2019-04-22T14:39:30.350Z,51.80
2019-04-22T14:42:27.116Z,50.50
2019-04-22T14:47:45.058Z,50.80
2019-04-22T14:50:02.727Z,50.70
2019-04-22T14:52:36.032Z,51.20
2019-04-22T14:54:54.400Z,51.20
2019-04-22T14:57:15.083Z,51.70
2019-04-22T14:59:48.154Z,51.30
2019-04-22T15:02:19.634Z,51.20
2019-04-22T15:04:51.932Z,51.70
2019-04-22T15:07:23.271Z,51.30
2019-04-22T15:09:53.880Z,50.80
2019-04-22T15:12:33.669Z,50.70
2019-04-22T15:14:59.566Z,50.60
2019-04-22T15:17:36.821Z,51.60
2019-04-22T15:20:19.974Z,51.00
2019-04-22T15:22:50.867Z,51.70
2019-04-22T15:25:22.768Z,50.80
2019-04-22T15:27:53.529Z,51.00
2019-04-22T15:30:25.531Z,50.80
2019-04-22T15:32:57.226Z,50.00
2019-04-22T15:35:29.184Z,49.90
2019-04-22T15:38:01.391Z,50.00
2019-04-22T15:40:32.056Z,50.00
2019-04-22T15:43:02.791Z,49.90
2019-04-22T15:45:34.925Z,49.20
2019-04-22T15:48:06.149Z,49.90
2019-04-22T15:50:37.856Z,49.00
2019-04-22T15:53:09.818Z,49.00
2019-04-22T15:58:12.060Z,48.60
2019-04-22T16:00:55.443Z,48.60
2019-04-22T16:03:16.357Z,49.10
2019-04-22T16:05:48.024Z,48.40
2019-04-22T16:08:19.169Z,48.90
2019-04-22T16:10:49.847Z,49.10
2019-04-22T16:13:24.790Z,48.00
2019-04-22T16:15:54.269Z,47.90
2019-04-22T16:18:26.325Z,47.40
2019-04-22T16:20:59.781Z,47.50
2019-04-22T16:23:50.160Z,47.80
2019-04-22T16:26:58.289Z,47.50
2019-04-22T16:29:29.637Z,47.20
2019-04-22T16:32:01.198Z,47.00
2019-04-22T16:34:32.141Z,47.40
2019-04-22T16:37:02.954Z,47.60
2019-04-22T16:39:33.561Z,47.50
2019-04-22T16:42:04.763Z,47.20
2019-04-22T16:44:36.541Z,46.30
2019-04-22T16:47:08.030Z,46.80
2019-04-22T16:49:39.292Z,47.80
2019-04-22T16:52:10.135Z,46.50
2019-04-22T16:54:42.071Z,46.60
2019-04-22T16:57:12.793Z,47.10
2019-04-22T16:59:44.568Z,47.60
2019-04-22T17:05:09.477Z,47.90
2019-04-22T17:07:40.612Z,48.20
2019-04-22T17:10:13.657Z,48.00
2019-04-22T17:12:53.944Z,48.50
2019-04-22T17:15:18.558Z,48.40
2019-04-22T17:17:49.484Z,48.40
2019-04-22T17:20:20.946Z,48.30
2019-04-22T17:22:55.805Z,48.70
2019-04-22T17:25:27.524Z,48.50
2019-04-22T17:30:29.170Z,48.90
2019-04-22T17:35:31.599Z,49.40
2019-04-22T17:38:14.290Z,49.30
2019-04-22T17:40:52.312Z,49.70
2019-04-22T17:43:36.178Z,49.50
2019-04-22T17:46:03.118Z,50.30
2019-04-22T17:48:52.966Z,50.60
2019-04-22T17:51:39.354Z,50.20
2019-04-22T17:53:58.050Z,50.20
2019-04-22T17:56:30.779Z,50.70
2019-04-22T17:59:02.445Z,51.20
2019-04-22T18:01:35.563Z,51.50
2019-04-22T18:03:52.838Z,51.50
2019-04-22T18:06:44.048Z,52.10
2019-04-22T18:09:07.547Z,51.40
2019-04-22T18:11:51.262Z,50.20
2019-04-22T18:14:34.671Z,50.40
2019-04-22T18:19:21.049Z,50.20
2019-04-22T18:21:50.470Z,50.70
2019-04-22T18:24:12.993Z,50.70
2019-04-22T18:26:55.433Z,51.10
2019-04-22T18:29:31.574Z,51.60
2019-04-22T18:31:50.172Z,51.20
2019-04-22T18:34:25.544Z,51.60
2019-04-22T18:37:02.680Z,52.10
2019-04-22T18:39:44.310Z,51.60
2019-04-22T18:42:07.534Z,51.60
2019-04-22T18:44:46.119Z,51.60
2019-04-22T18:47:13.184Z,52.30
2019-04-22T18:49:42.883Z,52.90
2019-04-22T18:52:40.196Z,53.40
2019-04-22T18:55:16.373Z,53.70
2019-04-22T18:58:04.299Z,53.90
2019-04-22T19:00:23.458Z,54.00
2019-04-22T19:03:03.032Z,54.70
2019-04-22T19:05:46.823Z,54.80
2019-04-22T19:08:22.845Z,55.30
2019-04-22T19:13:54.456Z,56.20
2019-04-22T19:16:15.914Z,56.40
2019-04-22T19:18:50.439Z,56.30
2019-04-22T19:21:08.051Z,56.50
2019-04-22T19:23:31.997Z,57.30
2019-04-22T19:26:16.848Z,57.30
2019-04-22T19:31:17.393Z,58.10
2019-04-22T19:33:46.475Z,58.30
2019-04-22T19:36:32.275Z,59.30
2019-04-22T19:41:24.461Z,58.80
2019-04-22T19:43:57.673Z,58.90
2019-04-22T19:46:22.552Z,59.40
2019-04-22T19:49:05.129Z,59.30
2019-04-22T19:51:44.105Z,60.00
2019-04-22T19:54:04.239Z,60.00
2019-04-22T19:56:32.547Z,60.30
2019-04-22T20:02:07.342Z,61.60
2019-04-22T20:05:06.578Z,61.30
2019-04-22T20:07:40.622Z,61.80
2019-04-22T20:10:19.633Z,62.80
2019-04-22T20:12:48.681Z,63.50
2019-04-22T20:15:18.652Z,64.30
2019-04-22T20:18:19.210Z,65.00
2019-04-22T20:20:31.714Z,65.60
2019-04-22T20:22:57.497Z,65.80
2019-04-22T20:25:28.373Z,66.20
2019-04-22T20:28:06.187Z,66.60
2019-04-22T20:30:39.883Z,67.30
2019-04-22T20:33:05.370Z,67.70
2019-04-22T20:35:43.738Z,67.90
2019-04-22T20:40:42.601Z,69.50
2019-04-22T20:45:52.272Z,70.30
2019-04-22T20:48:08.976Z,70.80
2019-04-22T20:50:52.998Z,71.20
2019-04-22T20:53:31.222Z,72.10
2019-04-22T20:56:00.580Z,72.50
2019-04-22T20:58:33.079Z,72.70
2019-04-22T21:00:55.745Z,73.30
2019-04-22T21:06:00.834Z,74.30
2019-04-22T21:08:44.794Z,74.60
2019-04-22T21:11:12.713Z,75.30
2019-04-22T21:16:18.442Z,75.70
2019-04-22T21:18:44.721Z,76.60
2019-04-22T21:23:47.795Z,77.10
2019-04-22T21:26:24.257Z,77.40
2019-04-22T21:28:53.476Z,77.60
2019-04-22T21:31:33.950Z,77.70
2019-04-22T21:33:59.467Z,77.80
2019-04-22T21:36:35.588Z,78.30
2019-04-22T21:46:42.438Z,79.00
2019-04-22T21:49:18.959Z,79.40
2019-04-22T21:51:49.651Z,79.60
2019-04-22T21:54:22.477Z,79.60
2019-04-22T21:57:16.923Z,80.00
2019-04-22T22:02:16.170Z,80.30
2019-04-22T22:04:44.510Z,80.70
2019-04-22T22:07:07.622Z,81.20
2019-04-22T22:09:53.815Z,81.70
2019-04-22T22:12:26.392Z,81.60
2019-04-22T22:15:00.532Z,82.20
2019-04-22T22:17:28.481Z,82.10
2019-04-22T22:19:58.584Z,82.40
2019-04-22T22:25:11.134Z,83.00
2019-04-22T22:27:37.421Z,83.60
2019-04-22T22:30:33.525Z,84.20
2019-04-22T22:35:16.782Z,84.60
2019-04-22T22:37:44.464Z,85.10
2019-04-22T22:40:07.492Z,85.60
2019-04-22T22:42:38.157Z,85.70
2019-04-22T22:45:13.907Z,85.70
2019-04-22T22:50:27.463Z,86.70
2019-04-22T22:55:37.401Z,87.00
2019-04-22T22:58:14.372Z,87.10
2019-04-22T23:00:35.636Z,87.10
2019-04-22T23:05:55.383Z,87.50
2019-04-22T23:08:20.019Z,87.40
2019-04-22T23:10:55.925Z,88.00
2019-04-22T23:13:25.837Z,88.30
2019-04-22T23:15:46.593Z,89.10
2019-04-22T23:18:05.786Z,89.60
2019-04-22T23:20:41.789Z,89.90
2019-04-22T23:23:25.739Z,90.00
2019-04-22T23:26:02.675Z,90.00
2019-04-22T23:28:45.979Z,90.10
2019-04-22T23:31:37.634Z,90.40
2019-04-22T23:34:26.542Z,91.00
2019-04-22T23:37:24.508Z,91.30
2019-04-22T23:40:06.719Z,91.00
2019-04-22T23:42:27.233Z,91.10
2019-04-22T23:45:03.617Z,91.40
2019-04-22T23:47:32.427Z,91.50
2019-04-22T23:50:09.145Z,91.50
2019-04-22T23:52:54.591Z,91.90
2019-04-22T23:55:20.533Z,92.10
2019-04-22T23:57:58.475Z,92.60
